Time;durP1;ratioP1;P1;durP2;ratioP2;P2;SDS_P1;SDS_P2;PMS_P1;PMS_P2;Temp;Humidity;BMP_temperature;BMP_pressure;BME280_temperature;BME280_humidity;BME280_pressure;Samples;Min_cycle;Max_cycle;Signal;HPM_P1;HPM_P2
2022/08/12 00:43:21;;;;;;;6.70;3.13;;;;;;;18.58;66.36;101738.56;5253013;28;20047;-73
2022/08/12 00:48:42;;;;;;;4.82;3.35;;;;;;;18.51;69.51;101729.34;5224013;28;20452;-73
2022/08/12 00:51:14;;;;;;;4.95;2.88;;;;;;;18.44;69.08;101730.91;5242079;28;20030;-72
2022/08/12 00:53:45;;;;;;;5.53;3.30;;;;;;;18.47;63.33;101725.22;5247964;28;20737;-72
2022/08/12 00:56:20;;;;;;;6.05;3.30;;;;;;;18.66;60.58;101723.44;5241197;28;20057;-73
2022/08/12 00:58:52;;;;;;;6.57;3.40;;;;;;;18.62;60.54;101722.91;5248376;28;20031;-72
2022/08/12 01:01:24;;;;;;;4.32;3.15;;;;;;;18.73;60.12;101719.13;5239380;28;20029;-72
2022/08/12 01:12:31;;;;;;;6.72;3.30;;;;;;;18.69;64.76;101723.16;5216729;28;20038;-73
2022/08/12 01:15:03;;;;;;;7.22;3.47;;;;;;;18.58;66.29;101726.88;5240110;28;20544;-72
2022/08/12 01:17:35;;;;;;;5.38;3.67;;;;;;;18.56;66.44;101718.94;5213803;28;20389;-72
2022/08/12 01:20:11;;;;;;;6.63;3.65;;;;;;;18.57;64.38;101720.63;5251151;28;20041;-73
2022/08/12 01:23:07;;;;;;;6.88;3.35;;;;;;;18.56;67.35;101723.47;5236182;28;20033;-72
2022/08/12 01:25:43;;;;;;;5.28;3.58;;;;;;;18.44;68.33;101720.09;5257483;28;20041;-73
2022/08/12 01:28:18;;;;;;;5.15;3.03;;;;;;;18.32;67.40;101726.69;5223443;28;20027;-72
2022/08/12 01:30:50;;;;;;;5.88;3.20;;;;;;;18.37;70.48;101722.56;5249418;28;20031;-73
2022/08/12 01:33:25;;;;;;;5.25;3.20;;;;;;;18.28;70.92;101730.69;5256500;28;20054;-73
2022/08/12 01:36:02;;;;;;;5.20;3.00;;;;;;;18.18;67.83;101728.03;5239143;28;20102;-73
2022/08/12 01:38:35;;;;;;;5.68;3.10;;;;;;;18.26;64.26;101721.88;5264635;28;20038;-71
2022/08/12 01:41:09;;;;;;;5.55;3.00;;;;;;;18.17;68.28;101723.59;5234348;28;20037;-72
2022/08/12 01:43:43;;;;;;;5.50;3.08;;;;;;;18.20;69.29;101720.63;5227609;28;20343;-73
2022/08/12 01:46:38;;;;;;;4.38;3.00;;;;;;;18.15;70.58;101721.03;5229522;28;20126;-73
2022/08/12 01:50:00;;;;;;;4.00;2.92;;;;;;;18.11;69.86;101722.34;5215717;28;20031;-73
2022/08/12 01:52:55;;;;;;;5.00;3.38;;;;;;;18.03;73.06;101723.06;5209780;28;20404;-72
2022/08/12 01:55:36;;;;;;;7.00;2.70;;;;;;;17.97;75.15;101717.41;5228556;28;20480;-72
2022/08/12 01:58:24;;;;;;;5.30;3.10;;;;;;;17.80;73.20;101722.50;5244054;28;20121;-73
2022/08/12 02:01:02;;;;;;;4.20;2.92;;;;;;;17.76;73.47;101723.78;5221349;28;20084;-72
2022/08/12 02:13:33;;;;;;;6.32;3.30;;;;;;;17.67;74.43;101712.97;5234781;28;21438;-73
2022/08/12 02:16:49;;;;;;;4.82;3.70;;;;;;;17.60;71.20;101715.38;5231540;28;21960;-70
2022/08/12 02:19:41;;;;;;;4.35;3.53;;;;;;;17.53;73.47;101716.97;5243038;28;20049;-70
2022/08/12 02:22:37;;;;;;;5.20;3.60;;;;;;;17.51;74.92;101714.41;5240530;28;20048;-71
2022/08/12 02:25:36;;;;;;;5.70;3.60;;;;;;;17.52;76.05;101708.00;5209333;28;20037;-70
2022/08/12 02:28:08;;;;;;;5.78;3.67;;;;;;;17.38;75.22;101706.56;5235276;28;20055;-70
2022/08/12 02:30:39;;;;;;;6.05;3.90;;;;;;;17.41;78.41;101708.13;5210565;28;20038;-71
2022/08/12 02:33:11;;;;;;;6.05;4.00;;;;;;;17.35;80.56;101703.31;5205507;28;20029;-71
2022/08/12 02:35:43;;;;;;;4.70;3.83;;;;;;;17.30;76.20;101705.59;5210273;28;20060;-71
2022/08/12 02:38:16;;;;;;;7.85;4.32;;;;;;;17.30;75.39;101700.19;5210220;28;20463;-71
2022/08/12 02:40:51;;;;;;;5.57;3.47;;;;;;;17.23;76.87;101703.44;5220007;28;20037;-71
2022/08/12 02:43:34;;;;;;;5.95;3.72;;;;;;;17.18;76.53;101699.44;5229058;28;20055;-71
2022/08/12 02:46:08;;;;;;;6.30;4.00;;;;;;;17.11;76.10;101701.03;5224210;28;20560;-71
2022/08/12 02:49:05;;;;;;;5.72;4.40;;;;;;;17.17;75.39;101700.47;5213273;28;20087;-71
2022/08/12 02:51:43;;;;;;;6.00;3.83;;;;;;;17.16;78.00;101699.63;5239756;28;20026;-72
2022/08/12 02:54:14;;;;;;;7.50;4.65;;;;;;;17.01;77.33;101699.16;5231966;28;20104;-72
2022/08/12 02:56:45;;;;;;;8.55;4.25;;;;;;;16.98;77.08;101704.81;5250423;28;20140;-72
2022/08/12 02:59:20;;;;;;;7.50;4.93;;;;;;;16.95;78.70;101702.41;5216366;28;20433;-71
2022/08/12 03:02:01;;;;;;;8.07;4.70;;;;;;;16.99;79.37;101708.34;5258299;28;20049;-72
2022/08/12 03:04:43;;;;;;;6.55;4.60;;;;;;;16.96;80.40;101706.78;5243626;28;20054;-71
2022/08/12 03:07:30;;;;;;;6.95;4.78;;;;;;;16.97;78.68;101697.72;5246329;28;20031;-72
2022/08/12 03:10:08;;;;;;;9.63;4.68;;;;;;;16.91;74.17;101698.25;5241180;28;20117;-72
2022/08/12 03:12:43;;;;;;;7.82;4.85;;;;;;;16.80;78.51;101688.44;5254098;28;20046;-72
2022/08/12 03:15:16;;;;;;;8.73;5.43;;;;;;;16.85;81.02;101698.81;5226948;28;20022;-72
2022/08/12 03:18:30;;;;;;;8.07;5.43;;;;;;;16.86;78.99;101692.44;5244253;28;20038;-71
2022/08/12 03:21:02;;;;;;;10.00;5.47;;;;;;;16.88;80.87;101695.00;5172558;28;20138;-71
2022/08/12 03:23:39;;;;;;;7.70;5.35;;;;;;;16.68;80.52;101692.19;5236928;28;20041;-73
2022/08/12 03:26:10;;;;;;;10.48;5.82;;;;;;;16.70;82.04;101683.97;5243853;28;20029;-72
2022/08/12 03:28:52;;;;;;;10.75;6.00;;;;;;;16.67;81.89;101691.34;5211860;28;20029;-72
2022/08/12 03:31:33;;;;;;;6.60;5.40;;;;;;;16.69;79.67;101682.28;5270440;28;20587;-71
2022/08/12 03:34:07;;;;;;;10.80;6.10;;;;;;;16.59;81.44;101684.97;5254078;28;20118;-72
2022/08/12 03:36:40;;;;;;;8.50;6.10;;;;;;;16.53;82.85;101680.97;5244798;28;20042;-72
2022/08/12 03:41:50;;;;;;;9.63;5.88;;;;;;;16.48;82.69;101685.06;5246321;28;20210;-72
2022/08/12 04:01:59;;;;;;;13.60;7.88;;;;;;;16.35;84.39;101686.13;5241880;28;20059;-73
2022/08/12 04:04:33;;;;;;;11.50;7.18;;;;;;;16.33;84.39;101688.09;5246325;28;20429;-72
2022/08/12 04:07:08;;;;;;;;;;;;;;;16.40;81.10;101686.56;5250473;28;20681;-72
2022/08/12 04:09:41;;;;;;;;;;;;;;;16.39;79.98;101690.25;5242685;28;19917;-72
2022/08/12 04:15:03;;;;;;;12.80;8.05;;;;;;;16.23;84.37;101696.13;5239814;28;20050;-72
2022/08/12 04:17:35;;;;;;;10.73;7.15;;;;;;;16.18;83.56;101698.34;5243433;28;20481;-72
2022/08/12 04:20:08;;;;;;;8.63;7.38;;;;;;;16.11;84.84;101702.59;5255905;28;20395;-73
2022/08/12 04:22:40;;;;;;;11.65;7.68;;;;;;;16.14;86.35;101704.16;5257617;28;20037;-72
2022/08/12 04:25:11;;;;;;;9.70;7.18;;;;;;;16.19;85.61;101696.53;5221166;28;20037;-72
2022/08/12 04:27:44;;;;;;;10.07;7.13;;;;;;;16.18;87.70;101697.50;5232209;28;20072;-72
2022/08/12 04:30:15;;;;;;;10.18;7.38;;;;;;;16.06;84.78;101696.72;5218140;28;20039;-72
2022/08/12 04:32:50;;;;;;;11.50;7.85;;;;;;;16.08;86.85;101692.91;5223819;28;20536;-72
2022/08/12 04:35:22;;;;;;;12.82;7.65;;;;;;;16.05;87.26;101697.69;5234728;28;20029;-72
2022/08/12 04:37:55;;;;;;;12.00;7.88;;;;;;;16.04;88.30;101693.31;5240358;28;20507;-72
2022/08/12 04:40:30;;;;;;;11.88;7.88;;;;;;;16.00;85.29;101699.97;5261274;28;20068;-72
2022/08/12 04:43:03;;;;;;;13.77;7.97;;;;;;;16.02;87.98;101700.69;5250265;28;20046;-72
2022/08/12 04:45:37;;;;;;;10.70;7.85;;;;;;;16.04;88.30;101701.41;5221620;28;20128;-72
2022/08/12 04:48:08;;;;;;;12.77;8.38;;;;;;;16.01;86.67;101699.84;5242914;28;20049;-72
2022/08/12 04:50:40;;;;;;;11.85;8.77;;;;;;;15.99;88.01;101704.50;5239392;28;20179;-72
2022/08/12 04:53:12;;;;;;;9.15;7.65;;;;;;;16.03;88.84;101697.84;5235498;28;20033;-72
2022/08/12 04:55:45;;;;;;;11.65;8.38;;;;;;;16.02;87.67;101700.69;5266067;28;20043;-72
2022/08/12 04:58:16;;;;;;;11.43;8.55;;;;;;;15.94;87.31;101693.25;5249400;28;20433;-72
2022/08/12 05:00:48;;;;;;;10.63;8.55;;;;;;;16.03;89.07;101696.97;5232097;28;20125;-73
2022/08/12 05:03:19;;;;;;;11.02;8.73;;;;;;;16.04;91.45;101696.84;5205974;28;20026;-72
2022/08/12 05:05:51;;;;;;;10.77;8.18;;;;;;;16.03;90.76;101691.59;5211924;28;20418;-72
2022/08/12 05:08:24;;;;;;;11.43;8.65;;;;;;;16.05;90.87;101697.69;5212689;28;20444;-72
2022/08/12 05:10:56;;;;;;;11.68;8.02;;;;;;;16.02;89.54;101695.28;5205797;28;20037;-71
2022/08/12 05:13:36;;;;;;;12.48;8.48;;;;;;;16.09;91.14;101693.78;5210419;28;20048;-72
2022/08/12 05:16:08;;;;;;;11.25;8.90;;;;;;;16.15;90.36;101693.25;5211470;28;20030;-72
2022/08/12 05:18:39;;;;;;;11.25;8.15;;;;;;;16.12;91.99;101693.50;5209319;28;20447;-72
2022/08/12 05:21:10;;;;;;;11.43;7.57;;;;;;;16.13;87.49;101686.28;5219688;28;20026;-71
2022/08/12 05:23:42;;;;;;;13.73;8.45;;;;;;;16.15;88.72;101695.09;5215965;28;20101;-72
2022/08/12 05:26:13;;;;;;;13.70;8.48;;;;;;;16.15;86.04;101689.72;5203232;28;20403;-72
2022/08/12 05:28:45;;;;;;;11.73;8.75;;;;;;;16.18;90.34;101701.03;5208227;28;20413;-72
2022/08/12 05:31:16;;;;;;;11.85;8.43;;;;;;;16.23;93.20;101703.34;5212516;28;20502;-71
2022/08/12 05:33:47;;;;;;;8.80;7.78;;;;;;;16.25;91.78;101701.38;5212053;28;20041;-71
2022/08/12 05:36:19;;;;;;;10.48;8.05;;;;;;;16.33;92.75;101704.25;5211255;28;20422;-72
2022/08/12 05:38:56;;;;;;;11.40;8.02;;;;;;;16.32;89.04;101709.75;5230642;28;20026;-72
2022/08/12 05:41:29;;;;;;;8.98;7.50;;;;;;;16.32;88.61;101715.16;5204191;28;20472;-72
2022/08/12 05:44:09;;;;;;;12.02;7.90;;;;;;;16.37;84.73;101718.31;5210414;28;20030;-71
2022/08/12 05:46:41;;;;;;;11.88;7.93;;;;;;;16.49;88.72;101706.44;5202234;28;20026;-72
2022/08/12 05:49:12;;;;;;;9.93;8.10;;;;;;;16.52;90.69;101714.25;5210763;28;20034;-71
2022/08/12 05:51:43;;;;;;;13.55;8.43;;;;;;;16.63;90.28;101724.94;5200801;28;20053;-72
2022/08/12 05:54:15;;;;;;;11.68;8.27;;;;;;;16.54;92.01;101714.97;5207519;28;20032;-72
2022/08/12 05:56:47;;;;;;;9.80;7.78;;;;;;;16.61;93.29;101721.53;5209439;28;20033;-72
2022/08/12 05:59:20;;;;;;;12.85;8.30;;;;;;;16.56;90.50;101717.53;5205770;28;20022;-72
2022/08/12 06:01:57;;;;;;;10.98;8.55;;;;;;;16.60;91.39;101718.97;5208581;28;20539;-72
2022/08/12 06:04:29;;;;;;;12.25;9.20;;;;;;;16.63;92.01;101724.09;5206686;28;20034;-72
2022/08/12 06:07:01;;;;;;;10.77;8.43;;;;;;;16.82;88.83;101734.16;5210630;28;20488;-72
2022/08/12 06:09:32;;;;;;;14.15;9.35;;;;;;;16.75;94.88;101732.94;5211191;28;20025;-72
2022/08/12 06:12:04;;;;;;;14.77;9.32;;;;;;;16.79;96.18;101727.13;5188072;28;20145;-72
2022/08/12 06:14:35;;;;;;;11.07;8.90;;;;;;;16.84;92.36;101722.22;5208198;28;20084;-70
2022/08/12 06:17:08;;;;;;;10.90;8.30;;;;;;;16.95;94.09;101721.28;5209219;28;20156;-70
2022/08/12 06:19:40;;;;;;;11.45;8.50;;;;;;;16.89;95.28;101724.50;5210214;28;20112;-70
2022/08/12 06:22:11;;;;;;;12.05;8.60;;;;;;;16.92;91.19;101731.47;5204590;28;20451;-71
2022/08/12 06:24:43;;;;;;;10.25;8.55;;;;;;;17.00;89.61;101723.56;5212057;28;20028;-71
2022/08/12 06:27:17;;;;;;;10.60;7.97;;;;;;;17.07;86.88;101729.22;5205121;28;20094;-71
2022/08/12 06:29:48;;;;;;;14.27;8.65;;;;;;;17.08;88.82;101721.00;5203404;28;20203;-71
2022/08/12 06:32:20;;;;;;;14.13;8.88;;;;;;;17.13;90.41;101720.59;5206560;28;20480;-71
2022/08/12 06:34:52;;;;;;;10.68;8.68;;;;;;;17.13;92.94;101720.59;5205526;28;20025;-71
2022/08/12 06:37:24;;;;;;;10.75;7.53;;;;;;;17.22;90.40;101715.22;5208650;28;20037;-72
2022/08/12 06:39:55;;;;;;;11.30;8.10;;;;;;;17.35;92.17;101722.19;5206887;28;20038;-72
2022/08/12 06:45:23;;;;;;;12.57;7.50;;;;;;;17.43;90.15;101716.94;5207041;28;20086;-71
2022/08/12 06:47:55;;;;;;;11.63;8.05;;;;;;;17.50;88.14;101723.47;5206734;28;20068;-71
2022/08/12 06:50:29;;;;;;;12.32;7.40;;;;;;;17.62;89.25;101721.50;5208760;28;20460;-71
2022/08/12 06:53:04;;;;;;;10.27;7.28;;;;;;;17.66;91.73;101713.97;5208565;28;20022;-70
2022/08/12 06:55:36;;;;;;;11.30;7.10;;;;;;;17.74;87.95;101712.28;5207555;28;20038;-70
2022/08/12 06:58:07;;;;;;;10.55;6.47;;;;;;;17.97;83.80;101714.69;5210007;28;20578;-70
2022/08/12 07:00:42;;;;;;;7.35;6.00;;;;;;;17.99;82.52;101715.41;5205507;28;20034;-70
2022/08/12 07:03:19;;;;;;;9.60;5.57;;;;;;;18.08;84.81;101713.66;5205949;28;20090;-70
2022/08/12 07:05:50;;;;;;;9.15;5.65;;;;;;;18.46;79.14;101709.16;5199602;28;20092;-70
2022/08/12 07:08:26;;;;;;;11.07;5.93;;;;;;;18.57;79.49;101717.94;5206937;28;20109;-70
2022/08/12 07:11:00;;;;;;;8.15;5.55;;;;;;;18.71;78.44;101713.03;5206481;28;20038;-70
2022/08/12 07:13:37;;;;;;;17.17;6.63;;;;;;;18.94;76.42;101717.06;5206965;28;20436;-70
2022/08/12 07:16:12;;;;;;;7.60;5.00;;;;;;;19.33;72.85;101718.66;5207598;28;20078;-70
2022/08/12 07:18:46;;;;;;;9.05;5.28;;;;;;;19.48;73.80;101714.41;5200285;28;20725;-71
2022/08/12 07:21:18;;;;;;;11.30;5.38;;;;;;;19.49;74.12;101720.69;5205830;28;20121;-70
2022/08/12 07:23:49;;;;;;;8.02;4.70;;;;;;;19.64;72.36;101719.16;5207782;28;21287;-70
2022/08/12 07:26:21;;;;;;;8.93;4.80;;;;;;;19.96;71.64;101717.72;5208819;28;20034;-70
2022/08/12 07:28:52;;;;;;;7.95;5.10;;;;;;;19.92;69.97;101732.59;5204734;28;20809;-70
2022/08/12 07:31:23;;;;;;;7.80;4.93;;;;;;;20.10;67.94;101721.75;5210137;28;20033;-70
2022/08/12 07:33:55;;;;;;;8.63;4.70;;;;;;;20.38;68.25;101727.84;5206510;28;20080;-70
2022/08/12 07:36:26;;;;;;;8.38;4.43;;;;;;;20.60;67.01;101725.63;5207794;28;20029;-71
2022/08/12 07:38:58;;;;;;;8.70;4.35;;;;;;;20.62;69.08;101734.47;5205748;28;20042;-70
2022/08/12 07:41:30;;;;;;;9.90;4.50;;;;;;;20.98;64.35;101734.25;5202456;28;20127;-70
2022/08/12 07:44:04;;;;;;;10.40;4.10;;;;;;;21.01;65.42;101739.38;5209607;28;20037;-70
2022/08/12 07:46:42;;;;;;;10.45;4.68;;;;;;;21.04;65.09;101733.63;5205338;28;20032;-70
2022/08/12 07:49:14;;;;;;;7.07;4.13;;;;;;;21.43;61.19;101733.03;5208200;28;20030;-70
2022/08/12 07:51:46;;;;;;;7.28;4.05;;;;;;;21.47;63.67;101726.28;5212546;28;20054;-70
2022/08/12 07:54:17;;;;;;;6.32;3.97;;;;;;;21.73;60.10;101724.25;5209317;28;20484;-69
2022/08/12 07:56:48;;;;;;;8.15;4.28;;;;;;;21.67;61.98;101733.09;5209724;28;20396;-69
2022/08/12 07:59:20;;;;;;;7.43;3.75;;;;;;;21.99;62.32;101734.09;5206124;28;20051;-69
2022/08/12 08:01:52;;;;;;;7.15;4.25;;;;;;;22.11;61.36;101735.47;5208634;28;20069;-69
2022/08/12 08:07:15;;;;;;;9.63;4.13;;;;;;;22.42;58.75;101734.75;5209630;28;20030;-69
2022/08/12 08:09:47;;;;;;;6.23;3.43;;;;;;;22.60;55.78;101741.84;5207002;28;20038;-70
2022/08/12 08:15:09;;;;;;;11.38;4.32;;;;;;;22.98;55.95;101744.75;5209988;28;20041;-70
2022/08/12 08:18:00;;;;;;;9.40;4.53;;;;;;;22.94;57.07;101743.41;5212447;28;20078;-70
2022/08/12 08:20:39;;;;;;;8.15;4.13;;;;;;;23.09;56.25;101739.78;5212684;28;20034;-69
2022/08/12 08:23:16;;;;;;;7.75;3.72;;;;;;;23.29;57.02;101751.06;5210293;28;20746;-69
2022/08/12 08:25:48;;;;;;;9.50;4.47;;;;;;;23.29;55.81;101750.22;5202846;28;20185;-69
2022/08/12 08:28:20;;;;;;;7.85;4.15;;;;;;;23.59;55.33;101747.66;5208357;28;20161;-69
2022/08/12 08:30:52;;;;;;;9.55;3.65;;;;;;;23.62;54.90;101747.28;5212783;28;20373;-69
2022/08/12 08:33:23;;;;;;;9.73;3.80;;;;;;;23.75;53.63;101741.22;5215222;28;20487;-69
2022/08/12 08:35:55;;;;;;;7.13;3.75;;;;;;;23.74;52.79;101742.25;5207179;28;20033;-69
2022/08/12 08:38:26;;;;;;;7.50;3.63;;;;;;;23.93;53.78;101749.13;5208832;28;20108;-69
2022/08/12 08:43:47;;;;;;;10.13;3.50;;;;;;;23.95;53.77;101745.19;5209974;28;20054;-70
2022/08/12 08:46:19;;;;;;;9.70;4.22;;;;;;;24.21;52.76;101746.66;5210092;28;20029;-69
2022/08/12 08:48:50;;;;;;;5.72;4.00;;;;;;;24.35;51.24;101737.63;5206254;28;20058;-69
2022/08/12 08:51:25;;;;;;;7.28;3.53;;;;;;;24.49;49.58;101743.28;5203638;28;20129;-69
2022/08/12 08:53:56;;;;;;;6.05;3.10;;;;;;;24.83;47.28;101740.88;5211531;28;20037;-69
2022/08/12 08:56:30;;;;;;;8.63;3.25;;;;;;;24.77;49.39;101746.22;5208186;28;20065;-70
2022/08/12 08:59:01;;;;;;;6.72;3.10;;;;;;;24.85;47.25;101744.25;5209883;28;20026;-69
2022/08/12 09:01:33;;;;;;;10.80;3.40;;;;;;;24.88;46.03;101748.47;5204746;28;20022;-69
2022/08/12 09:04:10;;;;;;;7.20;3.10;;;;;;;25.32;45.32;101741.28;5204597;28;20034;-72
2022/08/12 09:06:42;;;;;;;8.38;3.40;;;;;;;25.07;45.68;101741.56;5208511;28;20045;-70
2022/08/12 09:09:13;;;;;;;11.02;3.05;;;;;;;25.53;44.51;101735.81;5205179;28;20061;-70
2022/08/12 09:14:34;;;;;;;8.43;3.22;;;;;;;25.71;45.04;101738.06;5208418;28;20029;-70
2022/08/12 09:17:06;;;;;;;8.80;3.00;;;;;;;25.88;42.99;101733.19;5202204;28;20030;-71
2022/08/12 09:19:37;;;;;;;7.25;3.22;;;;;;;25.95;41.23;101742.31;5207747;28;20377;-70
2022/08/12 09:22:08;;;;;;;8.00;3.35;;;;;;;25.65;45.21;101732.56;5206453;28;20042;-70
2022/08/12 09:24:40;;;;;;;7.07;3.05;;;;;;;25.85;43.90;101732.72;5209317;28;20025;-68
2022/08/12 09:27:16;;;;;;;7.82;3.63;;;;;;;26.26;42.05;101737.50;5210119;28;20060;-70
2022/08/12 09:29:47;;;;;;;7.68;3.20;;;;;;;26.39;41.70;101732.97;5209070;28;20029;-70
2022/08/12 09:32:20;;;;;;;9.20;3.45;;;;;;;26.23;43.92;101740.63;5206798;28;20030;-70
2022/08/12 09:34:51;;;;;;;6.40;2.80;;;;;;;26.41;40.25;101727.31;5206530;28;20038;-70
2022/08/12 09:37:27;;;;;;;8.45;3.60;;;;;;;26.53;41.14;101727.56;5206165;28;20092;-71
2022/08/12 09:39:58;;;;;;;6.88;2.50;;;;;;;26.61;41.13;101721.97;5205734;28;20129;-69
2022/08/12 09:45:21;;;;;;;5.97;3.22;;;;;;;26.94;40.99;101716.66;5202509;28;20030;-70
2022/08/12 09:47:53;;;;;;;7.78;3.10;;;;;;;27.05;38.40;101715.19;5207082;28;20030;-70
2022/08/12 09:50:24;;;;;;;5.90;3.10;;;;;;;26.99;40.79;101714.13;5208779;28;20026;-70
2022/08/12 09:53:09;;;;;;;8.63;3.10;;;;;;;27.11;38.94;101719.00;5206822;28;20041;-69
2022/08/12 09:55:51;;;;;;;7.18;2.90;;;;;;;27.01;38.01;101708.44;5209266;28;20034;-70
2022/08/12 09:58:28;;;;;;;7.07;3.30;;;;;;;27.06;41.45;101708.69;5206839;28;20094;-69
2022/08/12 10:01:01;;;;;;;6.75;2.92;;;;;;;27.45;39.14;101709.00;5206120;28;20077;-70
2022/08/12 10:03:35;;;;;;;7.88;2.90;;;;;;;27.33;39.37;101711.53;5208375;28;20056;-70
2022/08/12 10:06:06;;;;;;;5.28;3.30;;;;;;;27.39;40.10;101707.94;5208511;28;20038;-70
2022/08/12 10:08:38;;;;;;;5.43;3.08;;;;;;;27.50;38.42;101699.09;5208334;28;20111;-70
2022/08/12 10:13:59;;;;;;;6.40;2.75;;;;;;;27.62;39.15;101696.59;5204852;28;20042;-70
2022/08/12 10:16:33;;;;;;;5.63;2.58;;;;;;;27.60;37.30;101704.19;5206305;28;20034;-70
2022/08/12 10:19:04;;;;;;;5.47;2.72;;;;;;;27.77;37.65;101694.47;5206293;28;20029;-70
2022/08/12 10:21:40;;;;;;;5.10;2.80;;;;;;;27.77;38.19;101693.66;5199737;28;20519;-70
2022/08/12 10:24:17;;;;;;;9.77;2.70;;;;;;;27.77;37.35;101693.66;5208168;28;20033;-71
2022/08/12 10:29:40;;;;;;;6.50;3.05;;;;;;;28.00;34.60;101693.25;5207153;28;20034;-71
2022/08/12 10:32:15;;;;;;;4.82;2.55;;;;;;;28.02;36.75;101679.28;5203652;28;20924;-70
2022/08/12 10:34:47;;;;;;;4.97;2.78;;;;;;;28.18;35.13;101678.84;5206737;28;20025;-70
2022/08/12 10:37:19;;;;;;;4.22;2.80;;;;;;;28.37;33.75;101670.78;5206312;28;20483;-70
2022/08/12 10:39:50;;;;;;;6.28;2.53;;;;;;;28.16;34.43;101667.25;5211052;28;20609;-70
2022/08/12 10:45:31;;;;;;;4.68;2.75;;;;;;;28.37;34.01;101660.63;5229829;28;20050;-70
2022/08/12 10:48:04;;;;;;;5.95;2.60;;;;;;;28.54;34.40;101666.53;5224118;28;20025;-70
2022/08/12 10:50:36;;;;;;;6.50;2.80;;;;;;;28.52;34.98;101653.00;5219537;28;20751;-71
2022/08/12 10:53:09;;;;;;;5.53;2.53;;;;;;;28.60;34.13;101662.06;5205286;28;20288;-70
2022/08/12 10:55:40;;;;;;;5.70;2.70;;;;;;;28.69;34.45;101649.78;5200523;28;20063;-70
2022/08/12 10:58:13;;;;;;;5.85;3.00;;;;;;;28.62;35.52;101652.56;5207053;28;20540;-71
2022/08/12 11:00:45;;;;;;;7.25;3.08;;;;;;;28.84;32.83;101644.84;5209948;28;20040;-70
2022/08/12 11:03:17;;;;;;;6.45;2.60;;;;;;;28.77;33.63;101651.44;5207926;28;20033;-69
2022/08/12 11:05:48;;;;;;;7.07;2.65;;;;;;;28.91;32.14;101651.13;5205974;28;20448;-70
2022/08/12 11:08:20;;;;;;;3.97;2.53;;;;;;;29.05;31.42;101640.06;5205293;28;20537;-69
2022/08/12 11:10:53;;;;;;;5.85;2.50;;;;;;;28.80;33.66;101634.50;5210413;28;20026;-69
2022/08/12 11:13:24;;;;;;;6.90;2.93;;;;;;;28.95;33.20;101624.06;5206418;28;20033;-69
2022/08/12 11:15:56;;;;;;;7.95;2.88;;;;;;;28.90;35.69;101634.88;5204762;28;20033;-69
2022/08/12 11:18:28;;;;;;;4.18;2.70;;;;;;;28.97;32.45;101632.91;5203906;28;20077;-69
2022/08/12 11:20:59;;;;;;;7.38;2.70;;;;;;;28.98;33.06;101628.28;5203587;28;20688;-69
2022/08/12 11:23:31;;;;;;;4.57;2.53;;;;;;;29.06;32.78;101622.53;5206841;28;20064;-70
2022/08/12 11:26:03;;;;;;;6.45;2.45;;;;;;;29.18;30.27;101625.44;5211718;28;20486;-69
2022/08/12 11:28:35;;;;;;;5.30;2.70;;;;;;;29.15;33.25;101620.38;5210955;28;20022;-69
2022/08/12 11:31:08;;;;;;;6.68;3.00;;;;;;;29.05;32.85;101618.94;5213337;28;20286;-70
2022/08/12 11:33:41;;;;;;;6.77;2.80;;;;;;;29.21;31.71;101616.75;5212521;28;20374;-70
2022/08/12 11:36:12;;;;;;;6.32;2.83;;;;;;;29.39;31.15;101625.03;5212453;28;20384;-69
2022/08/12 11:38:43;;;;;;;4.22;2.67;;;;;;;29.16;32.72;101617.41;5212231;28;20033;-70
2022/08/12 11:41:15;;;;;;;6.45;2.53;;;;;;;29.10;33.54;101610.03;5209490;28;20171;-69
2022/08/12 11:43:46;;;;;;;4.45;2.70;;;;;;;29.31;30.65;101606.91;5213009;28;20032;-70
2022/08/12 11:46:18;;;;;;;7.15;3.20;;;;;;;29.34;30.73;101600.16;5212819;28;20036;-69
2022/08/12 11:48:49;;;;;;;5.47;2.67;;;;;;;29.47;31.20;101600.00;5205252;28;20183;-69
2022/08/12 11:51:21;;;;;;;7.63;2.50;;;;;;;29.29;31.41;101600.81;5210940;28;20518;-70
2022/08/12 11:53:52;;;;;;;5.30;2.80;;;;;;;29.45;33.52;101602.16;5212777;28;20026;-69
2022/08/12 11:56:23;;;;;;;7.10;2.85;;;;;;;29.57;32.96;101598.66;5213449;28;20582;-70
2022/08/12 11:58:55;;;;;;;7.03;3.00;;;;;;;29.61;32.51;101594.38;5211906;28;20030;-69
2022/08/12 12:01:26;;;;;;;6.47;2.78;;;;;;;29.60;30.81;101592.72;5208996;28;20451;-70
2022/08/12 12:03:57;;;;;;;6.18;2.78;;;;;;;29.64;31.77;101591.19;5205185;28;20498;-70
2022/08/12 12:06:29;;;;;;;5.00;2.60;;;;;;;29.44;31.67;101585.91;5209221;28;20022;-70
2022/08/12 12:09:00;;;;;;;5.18;3.03;;;;;;;29.50;31.56;101580.31;5204050;28;20399;-70
2022/08/12 12:11:31;;;;;;;7.32;2.60;;;;;;;29.69;33.29;101572.94;5209625;28;20026;-70
2022/08/12 12:14:02;;;;;;;5.63;2.65;;;;;;;29.74;31.15;101575.03;5209959;28;20108;-70
2022/08/12 12:16:34;;;;;;;5.28;2.63;;;;;;;29.88;30.36;101579.34;5209272;28;20037;-70
2022/08/12 12:19:07;;;;;;;6.13;2.78;;;;;;;29.54;32.92;101582.63;5212509;28;20030;-70
2022/08/12 12:21:38;;;;;;;5.93;2.65;;;;;;;29.53;32.30;101579.03;5212128;28;20036;-71
2022/08/12 12:24:10;;;;;;;5.65;2.58;;;;;;;29.67;31.12;101572.34;5210774;28;20483;-70
2022/08/12 12:26:41;;;;;;;5.82;2.83;;;;;;;29.69;31.02;101570.19;5211983;28;20029;-70
2022/08/12 12:29:12;;;;;;;6.30;2.63;;;;;;;29.47;32.10;101579.94;5211044;28;20064;-70
2022/08/12 12:31:43;;;;;;;5.90;2.70;;;;;;;29.88;29.07;101565.59;5201034;28;20034;-72
2022/08/12 12:34:15;;;;;;;5.80;2.88;;;;;;;29.98;28.68;101567.81;5207554;28;20395;-70
2022/08/12 12:36:47;;;;;;;6.75;2.50;;;;;;;29.73;29.56;101558.78;5220766;28;20109;-71
2022/08/12 12:39:19;;;;;;;6.47;2.67;;;;;;;29.93;29.44;101564.88;5201006;28;20090;-70
2022/08/12 12:41:50;;;;;;;5.50;2.50;;;;;;;30.04;30.27;101549.53;5209357;28;20259;-70
2022/08/12 12:44:21;;;;;;;5.45;2.38;;;;;;;29.77;31.28;101549.00;5210801;28;20109;-70
2022/08/12 12:46:52;;;;;;;4.88;2.60;;;;;;;29.87;30.05;101555.63;5209534;28;20090;-71
2022/08/12 12:49:24;;;;;;;4.88;2.80;;;;;;;29.75;30.43;101562.97;5209731;28;20175;-70
2022/08/12 12:51:55;;;;;;;5.20;2.75;;;;;;;29.79;31.61;101552.38;5210022;28;20484;-70
2022/08/12 12:54:26;;;;;;;5.72;2.35;;;;;;;29.95;29.92;101546.22;5209740;28;20492;-71
2022/08/12 12:56:57;;;;;;;6.32;3.17;;;;;;;30.04;29.70;101542.09;5210402;28;20421;-70
2022/08/12 12:59:30;;;;;;;7.07;2.90;;;;;;;30.18;29.76;101544.69;5212244;28;20033;-70
2022/08/12 13:02:04;;;;;;;5.15;3.03;;;;;;;30.17;30.66;101546.63;5211371;28;20030;-70
2022/08/12 13:04:36;;;;;;;7.72;2.95;;;;;;;30.07;30.14;101540.81;5210746;28;20034;-70
2022/08/12 13:07:07;;;;;;;10.50;3.13;;;;;;;30.06;29.94;101537.22;5214361;28;20025;-70
2022/08/12 13:09:38;;;;;;;5.32;2.88;;;;;;;30.00;32.07;101532.63;5212105;28;20490;-70
2022/08/12 13:12:11;;;;;;;9.40;3.10;;;;;;;30.05;31.39;101537.44;5210892;28;20033;-70
2022/08/12 13:14:42;;;;;;;8.37;3.27;;;;;;;30.26;31.54;101523.22;5208858;28;20572;-70
2022/08/12 13:17:17;;;;;;;6.05;3.05;;;;;;;30.21;31.44;101531.31;5206462;28;20300;-70
2022/08/12 13:19:48;;;;;;;7.88;3.20;;;;;;;30.29;32.01;101528.22;5208967;28;20507;-71
2022/08/12 13:22:19;;;;;;;5.97;3.25;;;;;;;30.16;31.25;101517.41;5206360;28;20239;-70
2022/08/12 13:24:53;;;;;;;15.65;3.60;;;;;;;30.54;29.47;101531.97;5209261;28;20075;-70
2022/08/12 13:27:34;;;;;;;8.25;3.53;;;;;;;30.57;29.89;101523.22;5208754;28;20438;-70
2022/08/12 13:30:12;;;;;;;10.45;3.47;;;;;;;30.60;28.79;101525.50;5202423;28;20533;-70
2022/08/12 13:32:49;;;;;;;10.35;3.20;;;;;;;30.68;28.20;101523.28;5212647;28;20018;-70
2022/08/12 13:35:20;;;;;;;7.90;3.50;;;;;;;30.56;31.21;101518.78;5210922;28;20722;-70
2022/08/12 13:37:54;;;;;;;8.07;3.53;;;;;;;30.52;32.13;101509.34;5208553;28;20026;-70
2022/08/12 13:40:31;;;;;;;8.15;3.30;;;;;;;30.56;31.07;101514.13;5211155;28;20120;-70
2022/08/12 13:43:05;;;;;;;5.53;3.05;;;;;;;30.74;28.86;101504.09;5208915;28;20054;-70
2022/08/12 13:45:36;;;;;;;6.72;3.70;;;;;;;30.80;29.89;101506.78;5210278;28;20033;-70
2022/08/12 13:48:07;;;;;;;8.65;3.00;;;;;;;30.83;29.94;101499.94;5208720;28;20075;-70